sensor_id;sensor_type;location;lat;lon;timestamp;P1;durP1;ratioP1;P2;durP2;ratioP2
11481;SDS011;5797;51.662;6.748;2022-12-24T00:01:33;18.03;;;5.70;;
11481;SDS011;5797;51.662;6.748;2022-12-24T00:04:02;34.53;;;7.13;;
11481;SDS011;5797;51.662;6.748;2022-12-24T00:06:31;26.63;;;7.70;;
11481;SDS011;5797;51.662;6.748;2022-12-24T00:09:01;21.77;;;6.50;;
11481;SDS011;5797;51.662;6.748;2022-12-24T00:11:30;29.27;;;7.10;;
11481;SDS011;5797;51.662;6.748;2022-12-24T00:13:59;23.77;;;7.30;;
11481;SDS011;5797;51.662;6.748;2022-12-24T00:16:28;22.20;;;6.60;;
11481;SDS011;5797;51.662;6.748;2022-12-24T00:18:57;21.07;;;6.47;;
11481;SDS011;5797;51.662;6.748;2022-12-24T00:21:26;27.87;;;8.23;;
11481;SDS011;5797;51.662;6.748;2022-12-24T00:23:55;28.33;;;6.90;;
11481;SDS011;5797;51.662;6.748;2022-12-24T00:26:25;27.40;;;7.10;;
11481;SDS011;5797;51.662;6.748;2022-12-24T00:28:54;24.27;;;6.17;;
11481;SDS011;5797;51.662;6.748;2022-12-24T00:31:23;14.93;;;5.80;;
11481;SDS011;5797;51.662;6.748;2022-12-24T00:33:51;30.17;;;6.67;;
11481;SDS011;5797;51.662;6.748;2022-12-24T00:36:20;18.07;;;5.23;;
11481;SDS011;5797;51.662;6.748;2022-12-24T00:38:50;21.03;;;5.37;;
11481;SDS011;5797;51.662;6.748;2022-12-24T00:41:18;22.17;;;5.93;;
11481;SDS011;5797;51.662;6.748;2022-12-24T00:43:57;19.63;;;4.67;;
11481;SDS011;5797;51.662;6.748;2022-12-24T00:46:27;14.47;;;5.30;;
11481;SDS011;5797;51.662;6.748;2022-12-24T00:48:57;20.60;;;6.33;;
11481;SDS011;5797;51.662;6.748;2022-12-24T00:51:26;24.53;;;5.17;;
11481;SDS011;5797;51.662;6.748;2022-12-24T00:53:55;23.97;;;5.53;;
11481;SDS011;5797;51.662;6.748;2022-12-24T00:56:23;26.27;;;5.40;;
11481;SDS011;5797;51.662;6.748;2022-12-24T00:58:53;22.80;;;5.33;;
11481;SDS011;5797;51.662;6.748;2022-12-24T01:01:23;27.37;;;6.23;;
11481;SDS011;5797;51.662;6.748;2022-12-24T01:03:53;23.53;;;5.50;;
11481;SDS011;5797;51.662;6.748;2022-12-24T01:06:43;25.03;;;5.90;;
11481;SDS011;5797;51.662;6.748;2022-12-24T01:09:11;13.23;;;4.53;;
11481;SDS011;5797;51.662;6.748;2022-12-24T01:11:40;24.37;;;5.70;;
11481;SDS011;5797;51.662;6.748;2022-12-24T01:14:08;33.03;;;5.60;;
11481;SDS011;5797;51.662;6.748;2022-12-24T01:16:38;18.00;;;4.90;;
11481;SDS011;5797;51.662;6.748;2022-12-24T01:19:07;22.37;;;5.67;;
11481;SDS011;5797;51.662;6.748;2022-12-24T01:21:35;16.57;;;4.20;;
11481;SDS011;5797;51.662;6.748;2022-12-24T01:24:04;14.67;;;4.37;;
11481;SDS011;5797;51.662;6.748;2022-12-24T01:26:33;21.17;;;4.87;;
11481;SDS011;5797;51.662;6.748;2022-12-24T01:29:02;28.23;;;6.23;;
11481;SDS011;5797;51.662;6.748;2022-12-24T01:31:31;20.87;;;5.60;;
11481;SDS011;5797;51.662;6.748;2022-12-24T01:34:01;24.80;;;5.40;;
11481;SDS011;5797;51.662;6.748;2022-12-24T01:36:30;29.77;;;6.57;;
11481;SDS011;5797;51.662;6.748;2022-12-24T01:38:59;22.90;;;5.10;;
11481;SDS011;5797;51.662;6.748;2022-12-24T01:41:28;24.70;;;5.83;;
11481;SDS011;5797;51.662;6.748;2022-12-24T01:44:16;31.53;;;5.07;;
11481;SDS011;5797;51.662;6.748;2022-12-24T01:46:46;19.07;;;5.03;;
11481;SDS011;5797;51.662;6.748;2022-12-24T01:49:18;23.20;;;5.23;;
11481;SDS011;5797;51.662;6.748;2022-12-24T01:51:48;26.40;;;6.07;;
11481;SDS011;5797;51.662;6.748;2022-12-24T01:54:19;18.70;;;5.20;;
11481;SDS011;5797;51.662;6.748;2022-12-24T01:56:50;24.63;;;5.17;;
11481;SDS011;5797;51.662;6.748;2022-12-24T01:59:20;21.13;;;5.13;;
11481;SDS011;5797;51.662;6.748;2022-12-24T02:01:49;20.63;;;4.57;;
11481;SDS011;5797;51.662;6.748;2022-12-24T02:04:22;19.03;;;5.07;;
11481;SDS011;5797;51.662;6.748;2022-12-24T02:06:53;23.50;;;5.20;;
11481;SDS011;5797;51.662;6.748;2022-12-24T02:09:21;26.57;;;5.90;;
11481;SDS011;5797;51.662;6.748;2022-12-24T02:11:50;21.17;;;4.73;;
11481;SDS011;5797;51.662;6.748;2022-12-24T02:14:18;37.87;;;5.97;;
11481;SDS011;5797;51.662;6.748;2022-12-24T02:16:50;24.03;;;5.60;;
11481;SDS011;5797;51.662;6.748;2022-12-24T02:19:33;16.10;;;4.97;;
11481;SDS011;5797;51.662;6.748;2022-12-24T02:22:20;27.17;;;5.83;;
11481;SDS011;5797;51.662;6.748;2022-12-24T02:25:03;26.93;;;5.10;;
11481;SDS011;5797;51.662;6.748;2022-12-24T02:27:45;22.90;;;5.87;;
11481;SDS011;5797;51.662;6.748;2022-12-24T02:30:20;22.50;;;4.77;;
11481;SDS011;5797;51.662;6.748;2022-12-24T02:33:02;14.73;;;5.00;;
11481;SDS011;5797;51.662;6.748;2022-12-24T02:35:44;26.80;;;5.90;;
11481;SDS011;5797;51.662;6.748;2022-12-24T02:38:19;18.47;;;4.97;;
11481;SDS011;5797;51.662;6.748;2022-12-24T02:40:52;19.17;;;4.27;;
11481;SDS011;5797;51.662;6.748;2022-12-24T02:43:24;24.63;;;6.07;;
11481;SDS011;5797;51.662;6.748;2022-12-24T02:45:58;18.67;;;5.30;;
11481;SDS011;5797;51.662;6.748;2022-12-24T02:48:29;21.97;;;5.27;;
11481;SDS011;5797;51.662;6.748;2022-12-24T02:51:03;21.93;;;4.97;;
11481;SDS011;5797;51.662;6.748;2022-12-24T02:53:36;24.47;;;5.93;;
11481;SDS011;5797;51.662;6.748;2022-12-24T02:56:17;23.87;;;6.27;;
11481;SDS011;5797;51.662;6.748;2022-12-24T02:59:09;25.20;;;5.10;;
11481;SDS011;5797;51.662;6.748;2022-12-24T03:01:48;16.70;;;5.00;;
11481;SDS011;5797;51.662;6.748;2022-12-24T03:04:21;25.83;;;5.23;;
11481;SDS011;5797;51.662;6.748;2022-12-24T03:07:06;26.03;;;4.90;;
11481;SDS011;5797;51.662;6.748;2022-12-24T03:09:47;21.37;;;6.10;;
11481;SDS011;5797;51.662;6.748;2022-12-24T03:12:23;27.93;;;4.83;;
11481;SDS011;5797;51.662;6.748;2022-12-24T03:14:55;26.73;;;5.30;;
11481;SDS011;5797;51.662;6.748;2022-12-24T03:17:25;21.80;;;5.50;;
11481;SDS011;5797;51.662;6.748;2022-12-24T03:19:54;23.90;;;5.80;;
11481;SDS011;5797;51.662;6.748;2022-12-24T03:22:23;22.47;;;5.33;;
11481;SDS011;5797;51.662;6.748;2022-12-24T03:24:52;22.07;;;5.47;;
11481;SDS011;5797;51.662;6.748;2022-12-24T03:27:21;19.57;;;4.63;;
11481;SDS011;5797;51.662;6.748;2022-12-24T03:29:49;26.33;;;5.83;;
11481;SDS011;5797;51.662;6.748;2022-12-24T03:32:21;15.90;;;5.53;;
11481;SDS011;5797;51.662;6.748;2022-12-24T03:34:52;17.60;;;4.80;;
11481;SDS011;5797;51.662;6.748;2022-12-24T03:37:22;18.97;;;5.10;;
11481;SDS011;5797;51.662;6.748;2022-12-24T03:39:51;20.37;;;5.30;;
11481;SDS011;5797;51.662;6.748;2022-12-24T03:42:19;35.60;;;5.20;;
11481;SDS011;5797;51.662;6.748;2022-12-24T03:44:48;25.93;;;5.57;;
11481;SDS011;5797;51.662;6.748;2022-12-24T03:47:16;18.83;;;5.30;;
11481;SDS011;5797;51.662;6.748;2022-12-24T03:49:45;28.90;;;5.23;;
11481;SDS011;5797;51.662;6.748;2022-12-24T03:52:15;25.87;;;5.50;;
11481;SDS011;5797;51.662;6.748;2022-12-24T03:54:43;26.20;;;5.77;;
11481;SDS011;5797;51.662;6.748;2022-12-24T03:57:12;13.70;;;4.53;;
11481;SDS011;5797;51.662;6.748;2022-12-24T03:59:40;18.57;;;5.10;;
11481;SDS011;5797;51.662;6.748;2022-12-24T04:02:09;29.17;;;5.37;;
11481;SDS011;5797;51.662;6.748;2022-12-24T04:04:38;25.20;;;5.70;;
11481;SDS011;5797;51.662;6.748;2022-12-24T04:07:07;24.87;;;5.10;;
11481;SDS011;5797;51.662;6.748;2022-12-24T04:09:37;18.20;;;4.63;;
11481;SDS011;5797;51.662;6.748;2022-12-24T04:12:06;17.70;;;5.60;;
11481;SDS011;5797;51.662;6.748;2022-12-24T04:14:35;17.17;;;5.53;;
11481;SDS011;5797;51.662;6.748;2022-12-24T04:17:03;18.67;;;5.57;;
11481;SDS011;5797;51.662;6.748;2022-12-24T04:19:32;22.07;;;4.87;;
11481;SDS011;5797;51.662;6.748;2022-12-24T04:22:00;21.57;;;5.03;;
11481;SDS011;5797;51.662;6.748;2022-12-24T04:24:29;30.00;;;5.20;;
11481;SDS011;5797;51.662;6.748;2022-12-24T04:26:59;23.37;;;4.63;;
11481;SDS011;5797;51.662;6.748;2022-12-24T04:29:28;31.60;;;6.07;;
11481;SDS011;5797;51.662;6.748;2022-12-24T04:31:57;22.23;;;5.50;;
11481;SDS011;5797;51.662;6.748;2022-12-24T04:34:26;23.67;;;5.63;;
11481;SDS011;5797;51.662;6.748;2022-12-24T04:36:55;20.37;;;4.33;;
11481;SDS011;5797;51.662;6.748;2022-12-24T04:39:24;29.07;;;6.00;;
11481;SDS011;5797;51.662;6.748;2022-12-24T04:41:52;18.50;;;4.93;;
11481;SDS011;5797;51.662;6.748;2022-12-24T04:44:22;27.50;;;5.20;;
11481;SDS011;5797;51.662;6.748;2022-12-24T04:46:51;20.60;;;4.57;;
11481;SDS011;5797;51.662;6.748;2022-12-24T04:49:20;23.00;;;5.70;;
11481;SDS011;5797;51.662;6.748;2022-12-24T04:51:48;25.53;;;5.63;;
11481;SDS011;5797;51.662;6.748;2022-12-24T04:54:17;24.93;;;4.50;;
11481;SDS011;5797;51.662;6.748;2022-12-24T04:56:46;32.20;;;5.03;;
11481;SDS011;5797;51.662;6.748;2022-12-24T04:59:14;25.80;;;4.90;;
11481;SDS011;5797;51.662;6.748;2022-12-24T05:01:44;29.07;;;4.83;;
11481;SDS011;5797;51.662;6.748;2022-12-24T05:04:13;21.53;;;4.50;;
11481;SDS011;5797;51.662;6.748;2022-12-24T05:06:42;23.47;;;4.30;;
11481;SDS011;5797;51.662;6.748;2022-12-24T05:09:10;14.50;;;3.90;;
11481;SDS011;5797;51.662;6.748;2022-12-24T05:11:39;20.40;;;3.87;;
11481;SDS011;5797;51.662;6.748;2022-12-24T05:14:08;25.00;;;4.47;;
11481;SDS011;5797;51.662;6.748;2022-12-24T05:16:36;17.87;;;5.37;;
11481;SDS011;5797;51.662;6.748;2022-12-24T05:19:06;27.13;;;4.93;;
11481;SDS011;5797;51.662;6.748;2022-12-24T05:21:35;20.30;;;4.70;;
11481;SDS011;5797;51.662;6.748;2022-12-24T05:24:03;17.17;;;4.33;;
11481;SDS011;5797;51.662;6.748;2022-12-24T05:26:50;18.03;;;4.40;;
11481;SDS011;5797;51.662;6.748;2022-12-24T05:29:21;18.67;;;4.60;;
11481;SDS011;5797;51.662;6.748;2022-12-24T05:31:50;24.70;;;5.23;;
11481;SDS011;5797;51.662;6.748;2022-12-24T05:34:21;13.03;;;4.27;;
11481;SDS011;5797;51.662;6.748;2022-12-24T05:36:50;13.67;;;4.17;;
11481;SDS011;5797;51.662;6.748;2022-12-24T05:39:20;18.27;;;4.50;;
11481;SDS011;5797;51.662;6.748;2022-12-24T05:41:49;16.30;;;4.23;;
11481;SDS011;5797;51.662;6.748;2022-12-24T05:44:18;15.27;;;4.17;;
11481;SDS011;5797;51.662;6.748;2022-12-24T05:46:47;14.83;;;3.63;;
11481;SDS011;5797;51.662;6.748;2022-12-24T05:49:15;20.73;;;4.10;;
11481;SDS011;5797;51.662;6.748;2022-12-24T05:51:46;17.33;;;4.20;;
11481;SDS011;5797;51.662;6.748;2022-12-24T05:54:14;18.20;;;3.90;;
11481;SDS011;5797;51.662;6.748;2022-12-24T05:56:44;12.60;;;4.50;;
11481;SDS011;5797;51.662;6.748;2022-12-24T05:59:12;21.13;;;4.37;;
11481;SDS011;5797;51.662;6.748;2022-12-24T06:01:41;21.63;;;4.50;;
11481;SDS011;5797;51.662;6.748;2022-12-24T06:04:13;15.43;;;4.73;;
11481;SDS011;5797;51.662;6.748;2022-12-24T06:06:42;20.13;;;5.03;;
11481;SDS011;5797;51.662;6.748;2022-12-24T06:09:12;16.67;;;4.83;;
11481;SDS011;5797;51.662;6.748;2022-12-24T06:11:41;23.40;;;5.07;;
11481;SDS011;5797;51.662;6.748;2022-12-24T06:14:10;23.13;;;4.20;;
11481;SDS011;5797;51.662;6.748;2022-12-24T06:16:39;22.10;;;4.77;;
11481;SDS011;5797;51.662;6.748;2022-12-24T06:19:08;22.30;;;5.13;;
11481;SDS011;5797;51.662;6.748;2022-12-24T06:21:37;20.97;;;4.73;;
11481;SDS011;5797;51.662;6.748;2022-12-24T06:24:06;17.73;;;4.47;;
11481;SDS011;5797;51.662;6.748;2022-12-24T06:26:37;24.60;;;5.07;;
11481;SDS011;5797;51.662;6.748;2022-12-24T06:29:05;16.00;;;5.10;;
11481;SDS011;5797;51.662;6.748;2022-12-24T06:31:34;20.17;;;5.07;;
11481;SDS011;5797;51.662;6.748;2022-12-24T06:34:03;18.27;;;4.50;;
11481;SDS011;5797;51.662;6.748;2022-12-24T06:36:32;19.10;;;4.77;;
11481;SDS011;5797;51.662;6.748;2022-12-24T06:39:01;16.50;;;4.43;;
11481;SDS011;5797;51.662;6.748;2022-12-24T06:41:30;23.63;;;4.57;;
11481;SDS011;5797;51.662;6.748;2022-12-24T06:44:01;23.47;;;5.23;;
11481;SDS011;5797;51.662;6.748;2022-12-24T06:46:30;21.97;;;5.30;;
11481;SDS011;5797;51.662;6.748;2022-12-24T06:48:58;16.43;;;4.50;;
11481;SDS011;5797;51.662;6.748;2022-12-24T06:51:27;23.97;;;5.00;;
11481;SDS011;5797;51.662;6.748;2022-12-24T06:53:56;22.50;;;4.53;;
11481;SDS011;5797;51.662;6.748;2022-12-24T06:56:27;19.67;;;4.63;;
11481;SDS011;5797;51.662;6.748;2022-12-24T06:58:56;16.03;;;4.23;;
11481;SDS011;5797;51.662;6.748;2022-12-24T07:01:32;17.90;;;4.90;;
11481;SDS011;5797;51.662;6.748;2022-12-24T07:04:01;16.00;;;4.50;;
11481;SDS011;5797;51.662;6.748;2022-12-24T07:06:30;17.87;;;5.00;;
11481;SDS011;5797;51.662;6.748;2022-12-24T07:08:59;17.63;;;5.00;;
11481;SDS011;5797;51.662;6.748;2022-12-24T07:11:28;26.27;;;4.90;;
11481;SDS011;5797;51.662;6.748;2022-12-24T07:13:57;29.17;;;4.87;;
11481;SDS011;5797;51.662;6.748;2022-12-24T07:16:26;20.90;;;5.27;;
11481;SDS011;5797;51.662;6.748;2022-12-24T07:18:57;22.63;;;5.20;;
11481;SDS011;5797;51.662;6.748;2022-12-24T07:21:26;21.33;;;4.73;;
11481;SDS011;5797;51.662;6.748;2022-12-24T07:23:55;17.87;;;4.47;;
11481;SDS011;5797;51.662;6.748;2022-12-24T07:26:24;20.30;;;4.83;;
11481;SDS011;5797;51.662;6.748;2022-12-24T07:28:52;16.50;;;5.43;;
11481;SDS011;5797;51.662;6.748;2022-12-24T07:31:21;14.97;;;5.07;;
11481;SDS011;5797;51.662;6.748;2022-12-24T07:33:50;20.43;;;4.97;;
11481;SDS011;5797;51.662;6.748;2022-12-24T07:36:21;16.07;;;4.53;;
11481;SDS011;5797;51.662;6.748;2022-12-24T07:38:50;12.47;;;4.13;;
11481;SDS011;5797;51.662;6.748;2022-12-24T07:41:19;28.97;;;5.20;;
11481;SDS011;5797;51.662;6.748;2022-12-24T07:43:48;17.13;;;4.60;;
11481;SDS011;5797;51.662;6.748;2022-12-24T07:46:17;23.23;;;4.40;;
11481;SDS011;5797;51.662;6.748;2022-12-24T07:48:46;20.23;;;5.47;;
11481;SDS011;5797;51.662;6.748;2022-12-24T07:51:15;25.47;;;5.33;;
11481;SDS011;5797;51.662;6.748;2022-12-24T07:53:46;19.30;;;4.47;;
11481;SDS011;5797;51.662;6.748;2022-12-24T07:56:15;17.23;;;5.17;;
11481;SDS011;5797;51.662;6.748;2022-12-24T07:58:44;16.03;;;4.03;;
11481;SDS011;5797;51.662;6.748;2022-12-24T08:01:13;14.23;;;4.67;;
11481;SDS011;5797;51.662;6.748;2022-12-24T08:03:42;20.20;;;5.20;;
11481;SDS011;5797;51.662;6.748;2022-12-24T08:06:11;21.80;;;4.70;;
11481;SDS011;5797;51.662;6.748;2022-12-24T08:08:40;16.00;;;4.20;;
11481;SDS011;5797;51.662;6.748;2022-12-24T08:11:11;22.20;;;4.53;;
11481;SDS011;5797;51.662;6.748;2022-12-24T08:13:40;13.57;;;4.53;;
11481;SDS011;5797;51.662;6.748;2022-12-24T08:16:09;22.30;;;4.70;;
11481;SDS011;5797;51.662;6.748;2022-12-24T08:18:38;20.00;;;4.40;;
11481;SDS011;5797;51.662;6.748;2022-12-24T08:21:07;17.40;;;4.60;;
11481;SDS011;5797;51.662;6.748;2022-12-24T08:23:36;21.17;;;4.97;;
11481;SDS011;5797;51.662;6.748;2022-12-24T08:26:05;13.63;;;4.23;;
11481;SDS011;5797;51.662;6.748;2022-12-24T08:28:36;22.43;;;4.33;;
11481;SDS011;5797;51.662;6.748;2022-12-24T08:31:11;12.93;;;3.70;;
11481;SDS011;5797;51.662;6.748;2022-12-24T08:33:47;18.60;;;4.93;;
11481;SDS011;5797;51.662;6.748;2022-12-24T08:36:17;16.77;;;4.30;;
11481;SDS011;5797;51.662;6.748;2022-12-24T08:38:46;22.33;;;5.07;;
11481;SDS011;5797;51.662;6.748;2022-12-24T08:41:43;16.77;;;4.60;;
11481;SDS011;5797;51.662;6.748;2022-12-24T08:44:39;16.83;;;4.80;;
11481;SDS011;5797;51.662;6.748;2022-12-24T08:47:08;19.70;;;4.10;;
11481;SDS011;5797;51.662;6.748;2022-12-24T08:49:36;18.37;;;4.23;;
11481;SDS011;5797;51.662;6.748;2022-12-24T08:52:06;21.43;;;4.83;;
11481;SDS011;5797;51.662;6.748;2022-12-24T08:54:35;20.83;;;4.60;;
11481;SDS011;5797;51.662;6.748;2022-12-24T08:57:04;28.60;;;5.83;;
11481;SDS011;5797;51.662;6.748;2022-12-24T08:59:32;27.40;;;4.90;;
11481;SDS011;5797;51.662;6.748;2022-12-24T09:02:03;22.33;;;5.03;;
11481;SDS011;5797;51.662;6.748;2022-12-24T09:04:32;26.63;;;5.53;;
11481;SDS011;5797;51.662;6.748;2022-12-24T09:07:00;25.13;;;5.57;;
11481;SDS011;5797;51.662;6.748;2022-12-24T09:09:29;26.60;;;4.70;;
11481;SDS011;5797;51.662;6.748;2022-12-24T09:12:04;19.53;;;4.60;;
11481;SDS011;5797;51.662;6.748;2022-12-24T09:14:34;18.73;;;4.30;;
11481;SDS011;5797;51.662;6.748;2022-12-24T09:17:04;28.03;;;5.47;;
11481;SDS011;5797;51.662;6.748;2022-12-24T09:19:33;21.60;;;4.97;;
11481;SDS011;5797;51.662;6.748;2022-12-24T09:22:02;18.03;;;4.33;;
11481;SDS011;5797;51.662;6.748;2022-12-24T09:24:31;17.57;;;4.60;;
11481;SDS011;5797;51.662;6.748;2022-12-24T09:27:01;19.57;;;4.10;;
11481;SDS011;5797;51.662;6.748;2022-12-24T09:29:30;18.27;;;4.50;;
11481;SDS011;5797;51.662;6.748;2022-12-24T09:32:00;19.40;;;4.73;;
11481;SDS011;5797;51.662;6.748;2022-12-24T09:34:30;21.33;;;4.67;;
11481;SDS011;5797;51.662;6.748;2022-12-24T09:36:59;19.43;;;4.23;;
11481;SDS011;5797;51.662;6.748;2022-12-24T09:39:29;29.60;;;6.20;;
11481;SDS011;5797;51.662;6.748;2022-12-24T09:41:59;17.03;;;4.63;;
11481;SDS011;5797;51.662;6.748;2022-12-24T09:44:35;17.10;;;4.87;;
11481;SDS011;5797;51.662;6.748;2022-12-24T09:47:08;19.53;;;5.03;;
11481;SDS011;5797;51.662;6.748;2022-12-24T09:49:42;19.57;;;4.20;;
11481;SDS011;5797;51.662;6.748;2022-12-24T09:52:15;16.40;;;4.97;;
11481;SDS011;5797;51.662;6.748;2022-12-24T09:54:49;19.93;;;4.87;;
11481;SDS011;5797;51.662;6.748;2022-12-24T09:57:22;16.07;;;5.27;;
11481;SDS011;5797;51.662;6.748;2022-12-24T09:59:54;19.17;;;5.17;;
11481;SDS011;5797;51.662;6.748;2022-12-24T10:02:23;15.53;;;5.40;;
11481;SDS011;5797;51.662;6.748;2022-12-24T10:04:54;17.67;;;5.33;;
11481;SDS011;5797;51.662;6.748;2022-12-24T10:07:30;20.93;;;5.47;;
11481;SDS011;5797;51.662;6.748;2022-12-24T10:10:08;15.70;;;4.53;;
11481;SDS011;5797;51.662;6.748;2022-12-24T10:12:44;18.63;;;5.40;;
11481;SDS011;5797;51.662;6.748;2022-12-24T10:15:19;23.10;;;4.40;;
11481;SDS011;5797;51.662;6.748;2022-12-24T10:17:56;19.97;;;4.53;;
11481;SDS011;5797;51.662;6.748;2022-12-24T10:20:38;15.47;;;4.57;;
11481;SDS011;5797;51.662;6.748;2022-12-24T10:23:12;27.37;;;5.00;;
11481;SDS011;5797;51.662;6.748;2022-12-24T10:25:47;16.57;;;5.13;;
11481;SDS011;5797;51.662;6.748;2022-12-24T10:28:20;18.83;;;4.93;;
11481;SDS011;5797;51.662;6.748;2022-12-24T10:30:51;21.53;;;4.73;;
11481;SDS011;5797;51.662;6.748;2022-12-24T10:33:26;17.53;;;5.23;;
11481;SDS011;5797;51.662;6.748;2022-12-24T10:35:59;19.30;;;5.70;;
11481;SDS011;5797;51.662;6.748;2022-12-24T10:38:32;18.87;;;5.30;;
11481;SDS011;5797;51.662;6.748;2022-12-24T10:41:01;26.33;;;6.20;;
11481;SDS011;5797;51.662;6.748;2022-12-24T10:43:31;14.80;;;4.30;;
11481;SDS011;5797;51.662;6.748;2022-12-24T10:46:00;18.43;;;4.93;;
11481;SDS011;5797;51.662;6.748;2022-12-24T10:48:31;24.50;;;5.27;;
11481;SDS011;5797;51.662;6.748;2022-12-24T10:51:05;19.10;;;5.87;;
11481;SDS011;5797;51.662;6.748;2022-12-24T10:53:41;15.17;;;5.63;;
11481;SDS011;5797;51.662;6.748;2022-12-24T10:56:14;28.73;;;5.27;;
11481;SDS011;5797;51.662;6.748;2022-12-24T10:58:46;22.80;;;5.40;;
11481;SDS011;5797;51.662;6.748;2022-12-24T11:01:19;23.03;;;5.57;;
11481;SDS011;5797;51.662;6.748;2022-12-24T11:03:58;31.63;;;5.87;;
11481;SDS011;5797;51.662;6.748;2022-12-24T11:06:30;27.40;;;6.00;;
11481;SDS011;5797;51.662;6.748;2022-12-24T11:09:11;17.50;;;4.83;;
11481;SDS011;5797;51.662;6.748;2022-12-24T11:11:44;28.97;;;5.30;;
11481;SDS011;5797;51.662;6.748;2022-12-24T11:14:13;20.77;;;4.77;;
11481;SDS011;5797;51.662;6.748;2022-12-24T11:16:47;21.67;;;5.60;;
11481;SDS011;5797;51.662;6.748;2022-12-24T11:19:19;21.37;;;5.77;;
11481;SDS011;5797;51.662;6.748;2022-12-24T11:21:58;23.97;;;4.47;;
11481;SDS011;5797;51.662;6.748;2022-12-24T11:24:29;12.50;;;3.97;;
11481;SDS011;5797;51.662;6.748;2022-12-24T11:32:48;19.17;;;5.10;;
11481;SDS011;5797;51.662;6.748;2022-12-24T11:35:18;22.77;;;5.43;;
11481;SDS011;5797;51.662;6.748;2022-12-24T11:37:51;20.33;;;5.60;;
11481;SDS011;5797;51.662;6.748;2022-12-24T11:40:38;21.57;;;5.23;;
11481;SDS011;5797;51.662;6.748;2022-12-24T11:43:12;18.90;;;6.17;;
11481;SDS011;5797;51.662;6.748;2022-12-24T11:45:46;17.17;;;5.43;;
11481;SDS011;5797;51.662;6.748;2022-12-24T11:51:23;24.13;;;5.53;;
11481;SDS011;5797;51.662;6.748;2022-12-24T11:53:57;15.57;;;4.50;;
11481;SDS011;5797;51.662;6.748;2022-12-24T11:56:32;18.17;;;5.87;;
11481;SDS011;5797;51.662;6.748;2022-12-24T11:59:07;24.30;;;5.87;;
11481;SDS011;5797;51.662;6.748;2022-12-24T12:01:43;21.77;;;5.93;;
11481;SDS011;5797;51.662;6.748;2022-12-24T12:04:17;23.47;;;5.93;;
11481;SDS011;5797;51.662;6.748;2022-12-24T12:06:48;18.73;;;5.70;;
11481;SDS011;5797;51.662;6.748;2022-12-24T12:09:21;22.30;;;4.90;;
11481;SDS011;5797;51.662;6.748;2022-12-24T12:11:51;21.20;;;5.17;;
11481;SDS011;5797;51.662;6.748;2022-12-24T12:14:25;15.13;;;5.27;;
11481;SDS011;5797;51.662;6.748;2022-12-24T12:16:57;15.87;;;5.03;;
11481;SDS011;5797;51.662;6.748;2022-12-24T12:19:31;24.87;;;5.53;;
11481;SDS011;5797;51.662;6.748;2022-12-24T12:22:06;19.43;;;5.30;;
11481;SDS011;5797;51.662;6.748;2022-12-24T12:24:44;22.20;;;5.77;;
11481;SDS011;5797;51.662;6.748;2022-12-24T12:27:17;16.17;;;5.43;;
11481;SDS011;5797;51.662;6.748;2022-12-24T12:29:48;27.87;;;5.70;;
11481;SDS011;5797;51.662;6.748;2022-12-24T12:32:24;23.30;;;6.60;;
11481;SDS011;5797;51.662;6.748;2022-12-24T12:34:57;20.80;;;5.77;;
11481;SDS011;5797;51.662;6.748;2022-12-24T12:37:30;16.00;;;5.53;;
11481;SDS011;5797;51.662;6.748;2022-12-24T12:40:05;19.23;;;5.47;;
11481;SDS011;5797;51.662;6.748;2022-12-24T12:42:40;21.17;;;5.97;;
11481;SDS011;5797;51.662;6.748;2022-12-24T12:45:19;26.77;;;6.27;;
11481;SDS011;5797;51.662;6.748;2022-12-24T12:48:07;20.20;;;5.93;;
11481;SDS011;5797;51.662;6.748;2022-12-24T12:50:56;20.83;;;5.20;;
11481;SDS011;5797;51.662;6.748;2022-12-24T12:53:30;18.53;;;5.67;;
11481;SDS011;5797;51.662;6.748;2022-12-24T12:56:12;19.37;;;5.33;;
11481;SDS011;5797;51.662;6.748;2022-12-24T12:58:46;25.87;;;7.40;;
11481;SDS011;5797;51.662;6.748;2022-12-24T13:01:19;19.90;;;6.20;;
11481;SDS011;5797;51.662;6.748;2022-12-24T13:04:09;23.67;;;6.13;;
11481;SDS011;5797;51.662;6.748;2022-12-24T13:06:56;17.10;;;5.17;;
11481;SDS011;5797;51.662;6.748;2022-12-24T13:09:40;21.10;;;4.50;;
11481;SDS011;5797;51.662;6.748;2022-12-24T13:12:27;18.80;;;5.00;;
11481;SDS011;5797;51.662;6.748;2022-12-24T13:15:05;15.10;;;5.50;;
11481;SDS011;5797;51.662;6.748;2022-12-24T13:17:42;22.77;;;5.80;;
11481;SDS011;5797;51.662;6.748;2022-12-24T13:20:26;18.73;;;5.63;;
11481;SDS011;5797;51.662;6.748;2022-12-24T13:22:56;22.83;;;5.80;;
11481;SDS011;5797;51.662;6.748;2022-12-24T13:25:29;22.87;;;5.60;;
11481;SDS011;5797;51.662;6.748;2022-12-24T13:33:52;17.53;;;5.80;;
11481;SDS011;5797;51.662;6.748;2022-12-24T13:36:21;14.00;;;4.87;;
11481;SDS011;5797;51.662;6.748;2022-12-24T13:38:50;26.83;;;5.93;;
11481;SDS011;5797;51.662;6.748;2022-12-24T13:41:47;15.27;;;4.57;;
11481;SDS011;5797;51.662;6.748;2022-12-24T13:44:25;15.47;;;4.93;;
11481;SDS011;5797;51.662;6.748;2022-12-24T13:50:12;20.40;;;5.87;;
11481;SDS011;5797;51.662;6.748;2022-12-24T13:52:49;19.70;;;5.33;;
11481;SDS011;5797;51.662;6.748;2022-12-24T13:55:19;25.87;;;5.67;;
11481;SDS011;5797;51.662;6.748;2022-12-24T13:57:55;19.17;;;5.70;;
11481;SDS011;5797;51.662;6.748;2022-12-24T14:00:33;21.90;;;5.93;;
11481;SDS011;5797;51.662;6.748;2022-12-24T14:03:14;15.40;;;5.30;;
11481;SDS011;5797;51.662;6.748;2022-12-24T14:05:49;21.07;;;6.33;;
11481;SDS011;5797;51.662;6.748;2022-12-24T14:08:24;15.87;;;5.03;;
11481;SDS011;5797;51.662;6.748;2022-12-24T14:10:57;19.77;;;5.53;;
11481;SDS011;5797;51.662;6.748;2022-12-24T14:13:50;22.13;;;6.20;;
11481;SDS011;5797;51.662;6.748;2022-12-24T14:17:02;18.53;;;5.67;;
11481;SDS011;5797;51.662;6.748;2022-12-24T14:20:19;20.60;;;5.70;;
11481;SDS011;5797;51.662;6.748;2022-12-24T14:22:47;24.53;;;6.43;;
11481;SDS011;5797;51.662;6.748;2022-12-24T14:25:16;13.20;;;5.43;;
11481;SDS011;5797;51.662;6.748;2022-12-24T14:27:48;17.83;;;5.90;;
11481;SDS011;5797;51.662;6.748;2022-12-24T14:30:20;16.97;;;5.70;;
11481;SDS011;5797;51.662;6.748;2022-12-24T14:32:51;14.57;;;5.70;;
11481;SDS011;5797;51.662;6.748;2022-12-24T14:35:21;19.87;;;6.07;;
11481;SDS011;5797;51.662;6.748;2022-12-24T14:37:56;25.97;;;6.23;;
11481;SDS011;5797;51.662;6.748;2022-12-24T14:40:26;20.70;;;5.60;;
11481;SDS011;5797;51.662;6.748;2022-12-24T14:42:57;17.20;;;5.87;;
11481;SDS011;5797;51.662;6.748;2022-12-24T14:45:31;15.67;;;5.40;;
11481;SDS011;5797;51.662;6.748;2022-12-24T14:48:09;15.43;;;5.37;;
11481;SDS011;5797;51.662;6.748;2022-12-24T14:50:47;15.87;;;5.73;;
11481;SDS011;5797;51.662;6.748;2022-12-24T14:53:27;17.97;;;5.53;;
11481;SDS011;5797;51.662;6.748;2022-12-24T14:56:10;20.60;;;6.37;;
11481;SDS011;5797;51.662;6.748;2022-12-24T14:58:41;22.17;;;5.93;;
11481;SDS011;5797;51.662;6.748;2022-12-24T15:01:18;20.90;;;7.13;;
11481;SDS011;5797;51.662;6.748;2022-12-24T15:04:03;14.67;;;6.17;;
11481;SDS011;5797;51.662;6.748;2022-12-24T15:06:33;16.93;;;5.73;;
11481;SDS011;5797;51.662;6.748;2022-12-24T15:09:02;22.90;;;7.17;;
11481;SDS011;5797;51.662;6.748;2022-12-24T15:11:31;17.43;;;6.77;;
11481;SDS011;5797;51.662;6.748;2022-12-24T15:20:43;19.17;;;7.67;;
11481;SDS011;5797;51.662;6.748;2022-12-24T15:24:22;17.67;;;7.13;;
11481;SDS011;5797;51.662;6.748;2022-12-24T15:26:52;21.37;;;7.67;;
11481;SDS011;5797;51.662;6.748;2022-12-24T15:29:22;22.47;;;9.80;;
11481;SDS011;5797;51.662;6.748;2022-12-24T15:31:52;28.47;;;10.33;;
11481;SDS011;5797;51.662;6.748;2022-12-24T15:34:25;25.67;;;10.03;;
11481;SDS011;5797;51.662;6.748;2022-12-24T15:37:04;20.80;;;10.17;;
11481;SDS011;5797;51.662;6.748;2022-12-24T15:39:34;18.50;;;9.20;;
11481;SDS011;5797;51.662;6.748;2022-12-24T15:42:08;21.30;;;8.97;;
11481;SDS011;5797;51.662;6.748;2022-12-24T15:44:41;21.03;;;8.33;;